Time;durP1;ratioP1;P1;durP2;ratioP2;P2;SDS_P1;SDS_P2;PMS_P1;PMS_P2;Temp;Humidity;BMP_temperature;BMP_pressure;BME280_temperature;BME280_humidity;BME280_pressure;Samples;Min_cycle;Max_cycle;Signal;HPM_P1;HPM_P2
2021/05/16 00:01:38;;;;;;;;;;;20.40;59.00;;;;;;5053970;28;19916;-75
2021/05/16 00:04:04;;;;;;;;;;;20.30;59.00;;;;;;5043690;28;19920;-76
2021/05/16 00:06:29;;;;;;;;;;;20.30;59.00;;;;;;5055111;28;19995;-76
2021/05/16 00:08:55;;;;;;;;;;;20.30;59.00;;;;;;5052008;28;19970;-76
2021/05/16 00:11:20;;;;;;;;;;;20.30;59.00;;;;;;5038184;28;19963;-74
2021/05/16 00:13:46;;;;;;;;;;;20.30;59.00;;;;;;5050702;28;19956;-75
2021/05/16 00:16:11;;;;;;;;;;;20.30;59.00;;;;;;5039322;28;19920;-75
2021/05/16 00:18:37;;;;;;;;;;;20.30;59.00;;;;;;5056270;28;19921;-75
2021/05/16 00:21:02;;;;;;;;;;;20.30;59.00;;;;;;5054291;28;20441;-75
2021/05/16 00:23:28;;;;;;;;;;;20.30;59.00;;;;;;5052474;28;19920;-75
2021/05/16 00:25:53;;;;;;;;;;;20.30;59.00;;;;;;5037388;28;19921;-76
2021/05/16 00:28:19;;;;;;;;;;;20.30;59.00;;;;;;5038202;28;19964;-75
2021/05/16 00:30:45;;;;;;;;;;;20.30;59.00;;;;;;5054864;28;19967;-75
2021/05/16 00:33:10;;;;;;;;;;;20.30;59.00;;;;;;5041213;28;19913;-76
2021/05/16 00:35:36;;;;;;;;;;;20.30;59.00;;;;;;5047762;28;19913;-78
2021/05/16 00:38:02;;;;;;;;;;;20.30;59.00;;;;;;5055903;28;19920;-75
2021/05/16 00:40:28;;;;;;;;;;;20.30;59.00;;;;;;5036763;28;19925;-75
2021/05/16 00:42:54;;;;;;;;;;;20.30;59.10;;;;;;5035311;28;19920;-75
2021/05/16 00:45:24;;;;;;;;;;;20.30;59.10;;;;;;5055069;28;19971;-75
2021/05/16 00:48:00;;;;;;;;;;;20.30;59.00;;;;;;5054519;28;20003;-76
2021/05/16 00:50:26;;;;;;;;;;;20.30;59.10;;;;;;5052431;28;19913;-76
2021/05/16 00:52:52;;;;;;;;;;;20.30;59.10;;;;;;5035246;28;20011;-75
2021/05/16 00:55:18;;;;;;;;;;;20.30;59.10;;;;;;5055070;28;20054;-75
2021/05/16 00:57:44;;;;;;;;;;;20.30;59.10;;;;;;5039786;28;19917;-76
2021/05/16 01:00:13;;;;;;;;;;;20.30;59.10;;;;;;5054352;28;20394;-75
2021/05/16 01:02:39;;;;;;;;;;;20.30;59.10;;;;;;5053957;28;20392;-80
2021/05/16 01:05:05;;;;;;;;;;;20.30;59.10;;;;;;5050204;28;19913;-75
2021/05/16 01:07:31;;;;;;;;;;;20.30;59.10;;;;;;5037416;28;20331;-75
2021/05/16 01:09:56;;;;;;;;;;;20.30;59.10;;;;;;5054243;28;19917;-76
2021/05/16 01:12:29;;;;;;;;;;;20.30;59.20;;;;;;5054698;28;19920;-75
2021/05/16 01:14:57;;;;;;;;;;;20.30;59.10;;;;;;5036066;28;19920;-77
2021/05/16 01:17:22;;;;;;;;;;;20.30;59.10;;;;;;5041864;28;19936;-75
2021/05/16 01:19:48;;;;;;;;;;;20.30;59.10;;;;;;5053427;28;20374;-76
2021/05/16 01:22:18;;;;;;;;;;;20.30;59.20;;;;;;5054424;28;20388;-76
2021/05/16 01:24:47;;;;;;;;;;;20.30;59.20;;;;;;5054219;28;19912;-75
2021/05/16 01:27:13;;;;;;;;;;;20.30;59.20;;;;;;5054550;28;20012;-76
2021/05/16 01:29:39;;;;;;;;;;;20.30;59.20;;;;;;5054182;28;19952;-76
2021/05/16 01:32:10;;;;;;;;;;;20.30;59.20;;;;;;5054096;28;19952;-76
2021/05/16 01:34:37;;;;;;;;;;;20.30;59.20;;;;;;5049292;28;19917;-76
2021/05/16 01:37:02;;;;;;;;;;;20.30;59.20;;;;;;5036880;28;19912;-75
2021/05/16 01:39:28;;;;;;;;;;;20.30;59.20;;;;;;5034045;28;20194;-75
2021/05/16 01:41:54;;;;;;;;;;;20.30;59.20;;;;;;5051425;28;19920;-75
2021/05/16 01:44:20;;;;;;;;;;;20.30;59.20;;;;;;5032114;28;19920;-75
2021/05/16 01:46:46;;;;;;;;;;;20.30;59.20;;;;;;5053088;28;20293;-75
2021/05/16 01:49:12;;;;;;;;;;;20.30;59.20;;;;;;5039794;28;20011;-75
2021/05/16 01:51:37;;;;;;;;;;;20.30;59.20;;;;;;5035914;28;20431;-75
2021/05/16 01:54:05;;;;;;;;;;;20.30;59.20;;;;;;5037667;28;19912;-75
2021/05/16 01:56:30;;;;;;;;;;;20.30;59.20;;;;;;5037568;28;19913;-76
2021/05/16 01:58:57;;;;;;;;;;;20.30;59.30;;;;;;5050169;28;19913;-76
2021/05/16 02:01:27;;;;;;;;;;;20.30;59.20;;;;;;5050729;28;19970;-76
2021/05/16 02:03:53;;;;;;;;;;;20.20;59.30;;;;;;5053200;28;19913;-75
2021/05/16 02:06:20;;;;;;;;;;;20.20;59.30;;;;;;5039656;28;19924;-75
2021/05/16 02:08:46;;;;;;;;;;;20.20;59.30;;;;;;5052876;28;20553;-75
2021/05/16 02:11:11;;;;;;;;;;;20.30;59.30;;;;;;5045657;28;19921;-76
2021/05/16 02:13:38;;;;;;;;;;;20.20;59.30;;;;;;5052912;28;19919;-75
2021/05/16 02:16:04;;;;;;;;;;;20.30;59.30;;;;;;5034591;28;19920;-75
2021/05/16 02:18:29;;;;;;;;;;;20.20;59.30;;;;;;5030756;28;19917;-75
2021/05/16 02:20:55;;;;;;;;;;;20.30;59.30;;;;;;5050725;28;19917;-76
2021/05/16 02:23:20;;;;;;;;;;;20.20;59.30;;;;;;5053563;28;19917;-75
2021/05/16 02:25:46;;;;;;;;;;;20.20;59.30;;;;;;5050812;28;19913;-76
2021/05/16 02:28:11;;;;;;;;;;;20.30;59.30;;;;;;5052754;28;19921;-76
2021/05/16 02:30:37;;;;;;;;;;;20.20;59.30;;;;;;5052955;28;20003;-75
2021/05/16 02:33:04;;;;;;;;;;;20.30;59.30;;;;;;5042578;28;20412;-75
2021/05/16 02:35:30;;;;;;;;;;;20.20;59.30;;;;;;5055922;28;19935;-76
2021/05/16 02:37:55;;;;;;;;;;;20.20;59.30;;;;;;5052208;28;19916;-76
2021/05/16 02:40:21;;;;;;;;;;;20.20;59.30;;;;;;5034197;28;19913;-75
2021/05/16 02:42:46;;;;;;;;;;;20.20;59.30;;;;;;5029766;28;19919;-75
2021/05/16 02:45:12;;;;;;;;;;;20.20;59.40;;;;;;5050925;28;19920;-77
2021/05/16 02:47:38;;;;;;;;;;;20.20;59.40;;;;;;5028350;28;19920;-76
2021/05/16 02:50:05;;;;;;;;;;;20.20;59.30;;;;;;5052247;28;19917;-76
2021/05/16 02:52:30;;;;;;;;;;;20.20;59.30;;;;;;5030440;28;19920;-75
2021/05/16 02:54:56;;;;;;;;;;;20.20;59.40;;;;;;5030705;28;19913;-76
2021/05/16 02:57:21;;;;;;;;;;;20.20;59.40;;;;;;5044421;28;20022;-75
2021/05/16 02:59:47;;;;;;;;;;;20.20;59.40;;;;;;5035631;28;19955;-75
2021/05/16 03:02:15;;;;;;;;;;;20.20;59.40;;;;;;5052780;28;19935;-76
2021/05/16 03:04:41;;;;;;;;;;;20.20;59.40;;;;;;5052506;28;20047;-78
2021/05/16 03:07:06;;;;;;;;;;;20.20;59.40;;;;;;5052257;28;20004;-75
2021/05/16 03:09:34;;;;;;;;;;;20.20;59.40;;;;;;5051728;28;20374;-75
2021/05/16 03:12:01;;;;;;;;;;;20.20;59.40;;;;;;5052185;28;19959;-76
2021/05/16 03:14:26;;;;;;;;;;;20.20;59.40;;;;;;5032648;28;19963;-76
2021/05/16 03:16:52;;;;;;;;;;;20.20;59.40;;;;;;5033919;28;20010;-78
2021/05/16 03:19:17;;;;;;;;;;;20.20;59.40;;;;;;5053391;28;19913;-75
2021/05/16 03:21:43;;;;;;;;;;;20.20;59.40;;;;;;5027293;28;20020;-75
2021/05/16 03:24:09;;;;;;;;;;;20.20;59.40;;;;;;5051306;28;19931;-75
2021/05/16 03:26:34;;;;;;;;;;;20.20;59.40;;;;;;5052570;28;19917;-75
2021/05/16 03:29:00;;;;;;;;;;;20.20;59.40;;;;;;5053235;28;19962;-75
2021/05/16 03:31:26;;;;;;;;;;;20.10;59.40;;;;;;5034941;28;19991;-76
2021/05/16 03:33:51;;;;;;;;;;;20.20;59.40;;;;;;5030707;28;19963;-76
2021/05/16 03:36:17;;;;;;;;;;;20.10;59.40;;;;;;5052033;28;20405;-75
2021/05/16 03:38:42;;;;;;;;;;;20.10;59.40;;;;;;5038115;28;19919;-75
2021/05/16 03:41:08;;;;;;;;;;;20.20;59.40;;;;;;5051884;28;19959;-75
2021/05/16 03:43:34;;;;;;;;;;;20.20;59.40;;;;;;5051700;28;19912;-76
2021/05/16 03:45:59;;;;;;;;;;;20.20;59.40;;;;;;5047122;28;20294;-75
2021/05/16 03:48:25;;;;;;;;;;;20.20;59.40;;;;;;5050814;28;19928;-75
2021/05/16 03:50:50;;;;;;;;;;;20.20;59.40;;;;;;5049668;28;19912;-75
2021/05/16 03:53:16;;;;;;;;;;;20.20;59.40;;;;;;5051772;28;19912;-76
2021/05/16 03:55:41;;;;;;;;;;;20.10;59.40;;;;;;5051830;28;19920;-76
2021/05/16 03:58:07;;;;;;;;;;;20.20;59.40;;;;;;5030996;28;19924;-75
2021/05/16 04:00:32;;;;;;;;;;;20.10;59.40;;;;;;5041234;28;19912;-75
2021/05/16 04:02:58;;;;;;;;;;;20.20;59.40;;;;;;5041981;28;19920;-75
2021/05/16 04:05:23;;;;;;;;;;;20.10;59.40;;;;;;5035273;28;20495;-76
2021/05/16 04:07:49;;;;;;;;;;;20.20;59.40;;;;;;5034582;28;19925;-75
2021/05/16 04:10:15;;;;;;;;;;;20.20;59.40;;;;;;5045542;28;20350;-75
2021/05/16 04:12:40;;;;;;;;;;;20.10;59.40;;;;;;5033402;28;19929;-75
2021/05/16 04:15:06;;;;;;;;;;;20.10;59.40;;;;;;5051735;28;19996;-76
2021/05/16 04:17:32;;;;;;;;;;;20.10;59.40;;;;;;5050391;28;19913;-75
2021/05/16 04:19:57;;;;;;;;;;;20.20;59.40;;;;;;5033473;28;19920;-76
2021/05/16 04:22:23;;;;;;;;;;;20.10;59.40;;;;;;5033859;28;19982;-75
2021/05/16 04:24:48;;;;;;;;;;;20.10;59.40;;;;;;5051876;28;19943;-76
2021/05/16 04:27:19;;;;;;;;;;;20.20;59.40;;;;;;5032041;28;19955;-76
2021/05/16 04:29:45;;;;;;;;;;;20.10;59.40;;;;;;5031370;28;19959;-76
2021/05/16 04:32:10;;;;;;;;;;;20.10;59.40;;;;;;5051128;28;19913;-75
2021/05/16 04:34:37;;;;;;;;;;;20.20;59.40;;;;;;5037560;28;19913;-75
2021/05/16 04:37:03;;;;;;;;;;;20.10;59.40;;;;;;5051737;28;19913;-75
2021/05/16 04:39:28;;;;;;;;;;;20.10;59.30;;;;;;5054517;28;20108;-75
2021/05/16 04:41:54;;;;;;;;;;;20.10;59.30;;;;;;5054370;28;20397;-76
2021/05/16 04:44:19;;;;;;;;;;;20.20;59.30;;;;;;5031752;28;19967;-75
2021/05/16 04:46:50;;;;;;;;;;;20.10;59.30;;;;;;5034146;28;19913;-75
2021/05/16 04:49:20;;;;;;;;;;;20.20;59.30;;;;;;5040922;28;20366;-75
2021/05/16 04:51:46;;;;;;;;;;;20.20;59.30;;;;;;5048059;28;19912;-75
2021/05/16 04:54:16;;;;;;;;;;;20.20;59.30;;;;;;5055172;28;19928;-75
2021/05/16 04:56:44;;;;;;;;;;;20.20;59.20;;;;;;5027472;28;19913;-76
2021/05/16 04:59:13;;;;;;;;;;;20.20;59.20;;;;;;5035717;28;19913;-75
2021/05/16 05:01:40;;;;;;;;;;;20.20;59.20;;;;;;5052868;28;19913;-75
2021/05/16 05:04:05;;;;;;;;;;;20.20;59.20;;;;;;5035504;28;19921;-75
2021/05/16 05:06:36;;;;;;;;;;;20.20;59.10;;;;;;5021250;28;19914;-75
2021/05/16 05:09:06;;;;;;;;;;;20.20;59.10;;;;;;5052647;28;20017;-76
2021/05/16 05:11:35;;;;;;;;;;;20.20;59.10;;;;;;5033131;28;19921;-75
2021/05/16 05:14:00;;;;;;;;;;;20.30;59.10;;;;;;5042743;28;19914;-75
2021/05/16 05:16:31;;;;;;;;;;;20.20;59.00;;;;;;5048965;28;20406;-76
2021/05/16 05:18:58;;;;;;;;;;;20.20;59.00;;;;;;5047296;28;20248;-75
2021/05/16 05:21:23;;;;;;;;;;;20.30;59.00;;;;;;5031550;28;19959;-75
2021/05/16 05:23:49;;;;;;;;;;;20.30;59.00;;;;;;5049644;28;19921;-76
2021/05/16 05:26:14;;;;;;;;;;;20.30;58.90;;;;;;5026835;28;20270;-76
2021/05/16 05:28:48;;;;;;;;;;;20.30;58.90;;;;;;5034319;28;19925;-75
2021/05/16 05:31:14;;;;;;;;;;;20.30;58.90;;;;;;5030679;28;19917;-75
2021/05/16 05:33:39;;;;;;;;;;;20.30;58.90;;;;;;5027380;28;20248;-75
2021/05/16 05:36:10;;;;;;;;;;;20.30;58.80;;;;;;5032822;28;20358;-76
2021/05/16 05:38:39;;;;;;;;;;;20.30;58.80;;;;;;5029674;28;19921;-75
2021/05/16 05:41:09;;;;;;;;;;;20.30;58.70;;;;;;5034054;28;19913;-75
2021/05/16 05:43:46;;;;;;;;;;;20.30;58.70;;;;;;5043449;28;20063;-75
2021/05/16 05:46:12;;;;;;;;;;;20.30;58.60;;;;;;5044572;28;19920;-76
2021/05/16 05:48:38;;;;;;;;;;;20.30;58.60;;;;;;5031293;28;19929;-75
2021/05/16 05:51:09;;;;;;;;;;;20.30;58.60;;;;;;5015119;28;19921;-76
2021/05/16 05:53:46;;;;;;;;;;;20.30;58.60;;;;;;5048283;28;19913;-75
2021/05/16 05:56:11;;;;;;;;;;;20.30;58.70;;;;;;5030389;28;19913;-76
2021/05/16 05:58:37;;;;;;;;;;;20.30;58.70;;;;;;5030535;28;20428;-76
2021/05/16 06:01:03;;;;;;;;;;;20.30;58.70;;;;;;5032340;28;19913;-75
2021/05/16 06:03:29;;;;;;;;;;;20.30;58.70;;;;;;5032090;28;20424;-75
2021/05/16 06:06:05;;;;;;;;;;;20.30;58.70;;;;;;5030618;28;19964;-76
2021/05/16 06:08:44;;;;;;;;;;;20.30;58.60;;;;;;5029668;28;19921;-75
2021/05/16 06:11:10;;;;;;;;;;;20.30;58.60;;;;;;5035576;28;19928;-75
2021/05/16 06:13:35;;;;;;;;;;;20.40;58.50;;;;;;5035790;28;19913;-75
2021/05/16 06:16:01;;;;;;;;;;;20.30;58.40;;;;;;5052513;28;19921;-75
2021/05/16 06:18:26;;;;;;;;;;;20.40;58.40;;;;;;5048876;28;20104;-75
2021/05/16 06:20:52;;;;;;;;;;;20.40;58.40;;;;;;5040231;28;19920;-75
2021/05/16 06:23:19;;;;;;;;;;;20.40;58.30;;;;;;5052871;28;19913;-75
2021/05/16 06:25:45;;;;;;;;;;;20.40;58.30;;;;;;5050237;28;19999;-76
2021/05/16 06:28:10;;;;;;;;;;;20.40;58.30;;;;;;5035394;28;19921;-76
2021/05/16 06:30:36;;;;;;;;;;;20.40;58.30;;;;;;5052306;28;19963;-75
2021/05/16 06:33:01;;;;;;;;;;;20.40;58.40;;;;;;5052126;28;19944;-76
2021/05/16 06:35:27;;;;;;;;;;;20.40;58.40;;;;;;5053137;28;19915;-77
2021/05/16 06:37:52;;;;;;;;;;;20.40;58.30;;;;;;5052358;28;20271;-76
2021/05/16 06:40:18;;;;;;;;;;;20.40;58.30;;;;;;5045281;28;19913;-76
2021/05/16 06:42:44;;;;;;;;;;;20.40;58.30;;;;;;5055665;28;20328;-75
2021/05/16 06:45:11;;;;;;;;;;;20.50;58.10;;;;;;5054124;28;19917;-75
2021/05/16 06:47:37;;;;;;;;;;;20.50;58.00;;;;;;5032178;28;20012;-75
2021/05/16 06:50:03;;;;;;;;;;;20.50;57.90;;;;;;5051936;28;20286;-75
2021/05/16 06:52:29;;;;;;;;;;;20.50;57.80;;;;;;5033004;28;19917;-75
2021/05/16 06:54:54;;;;;;;;;;;20.60;57.80;;;;;;5051928;28;19916;-75
2021/05/16 06:57:20;;;;;;;;;;;20.50;57.80;;;;;;5061213;28;19912;-75
2021/05/16 06:59:45;;;;;;;;;;;20.60;57.80;;;;;;5033030;28;20389;-75
2021/05/16 07:02:11;;;;;;;;;;;20.60;57.80;;;;;;5034444;28;19913;-77
2021/05/16 07:04:36;;;;;;;;;;;20.60;57.80;;;;;;5052707;28;20270;-75
2021/05/16 07:07:02;;;;;;;;;;;20.50;57.80;;;;;;5037532;28;19921;-75
2021/05/16 07:09:32;;;;;;;;;;;20.60;57.70;;;;;;5052652;28;19924;-76
2021/05/16 07:11:58;;;;;;;;;;;20.60;57.70;;;;;;5032792;28;19928;-75
2021/05/16 07:14:23;;;;;;;;;;;20.60;57.70;;;;;;5052147;28;19913;-75
2021/05/16 07:16:49;;;;;;;;;;;20.60;57.60;;;;;;5048887;28;19921;-76
2021/05/16 07:19:15;;;;;;;;;;;20.60;57.60;;;;;;5028542;28;20070;-75
2021/05/16 07:21:41;;;;;;;;;;;20.60;57.60;;;;;;5046410;28;19913;-75
2021/05/16 07:24:07;;;;;;;;;;;20.60;57.60;;;;;;5051817;28;19920;-75
2021/05/16 07:26:32;;;;;;;;;;;20.60;57.60;;;;;;5035115;28;19913;-75
2021/05/16 07:28:58;;;;;;;;;;;20.60;57.60;;;;;;5051634;28;19927;-75
2021/05/16 07:31:23;;;;;;;;;;;20.60;57.50;;;;;;5034005;28;19952;-75
2021/05/16 07:33:49;;;;;;;;;;;20.70;57.50;;;;;;5051276;28;20689;-75
2021/05/16 07:36:14;;;;;;;;;;;20.60;57.50;;;;;;5024914;28;19928;-75
2021/05/16 07:38:40;;;;;;;;;;;20.60;57.60;;;;;;5047444;28;19916;-75
2021/05/16 07:41:06;;;;;;;;;;;20.60;57.60;;;;;;5039026;28;19944;-75
2021/05/16 07:43:31;;;;;;;;;;;20.60;57.60;;;;;;5030700;28;20381;-76
2021/05/16 07:45:57;;;;;;;;;;;20.60;57.60;;;;;;5031072;28;19935;-75
2021/05/16 07:48:28;;;;;;;;;;;20.60;57.60;;;;;;5028870;28;20419;-75
2021/05/16 07:50:54;;;;;;;;;;;20.60;57.60;;;;;;5052257;28;19947;-75
2021/05/16 07:53:20;;;;;;;;;;;20.60;57.70;;;;;;5033568;28;21289;-75
2021/05/16 07:55:45;;;;;;;;;;;20.50;57.60;;;;;;5032886;28;20358;-75
2021/05/16 07:58:11;;;;;;;;;;;20.60;57.60;;;;;;5056440;28;19912;-76
2021/05/16 08:00:36;;;;;;;;;;;20.60;57.60;;;;;;5052072;28;20486;-75
2021/05/16 08:03:02;;;;;;;;;;;20.60;57.60;;;;;;5032697;28;19920;-75
2021/05/16 08:05:29;;;;;;;;;;;20.60;57.60;;;;;;5032563;28;19916;-76
2021/05/16 08:07:55;;;;;;;;;;;20.70;57.50;;;;;;5047699;28;19972;-75
2021/05/16 08:10:22;;;;;;;;;;;20.70;57.50;;;;;;5034581;28;20377;-75
2021/05/16 08:12:48;;;;;;;;;;;20.70;57.40;;;;;;5034028;28;19928;-75
2021/05/16 08:15:13;;;;;;;;;;;20.70;57.30;;;;;;5055187;28;19913;-79
2021/05/16 08:17:39;;;;;;;;;;;20.70;57.30;;;;;;5039531;28;19916;-76
2021/05/16 08:20:06;;;;;;;;;;;20.70;57.20;;;;;;5049641;28;20275;-75
2021/05/16 08:22:38;;;;;;;;;;;20.80;57.10;;;;;;5047397;28;21441;-75
2021/05/16 08:25:04;;;;;;;;;;;20.80;57.10;;;;;;5039737;28;20273;-75
2021/05/16 08:27:30;;;;;;;;;;;20.80;57.10;;;;;;5055526;28;20668;-78
2021/05/16 08:29:55;;;;;;;;;;;20.80;57.00;;;;;;5055073;28;19921;-76
2021/05/16 08:32:21;;;;;;;;;;;20.80;57.00;;;;;;5039594;28;19990;-75
2021/05/16 08:34:46;;;;;;;;;;;20.80;57.00;;;;;;5055876;28;19935;-76
2021/05/16 08:37:13;;;;;;;;;;;20.80;57.00;;;;;;5037458;28;20259;-75
2021/05/16 08:39:38;;;;;;;;;;;20.80;57.00;;;;;;5046126;28;19920;-75
2021/05/16 08:42:04;;;;;;;;;;;20.80;56.90;;;;;;5055109;28;20328;-75
2021/05/16 08:44:33;;;;;;;;;;;20.80;56.80;;;;;;5039251;28;19917;-76
2021/05/16 08:47:00;;;;;;;;;;;20.80;56.80;;;;;;5048493;28;19921;-76
2021/05/16 08:49:25;;;;;;;;;;;20.80;56.80;;;;;;5034173;28;20384;-75
2021/05/16 08:51:51;;;;;;;;;;;20.80;56.80;;;;;;5055263;28;19916;-75
2021/05/16 08:54:20;;;;;;;;;;;20.90;56.70;;;;;;5054107;28;20031;-75
2021/05/16 08:56:47;;;;;;;;;;;20.80;56.70;;;;;;5037039;28;19917;-75
2021/05/16 08:59:12;;;;;;;;;;;20.80;56.80;;;;;;5041217;28;19921;-75
2021/05/16 09:01:44;;;;;;;;;;;20.80;56.90;;;;;;5055054;28;19913;-76
2021/05/16 09:04:20;;;;;;;;;;;20.80;56.90;;;;;;5054754;28;20012;-77
2021/05/16 09:06:46;;;;;;;;;;;20.80;56.90;;;;;;5054269;28;19917;-76
2021/05/16 09:09:23;;;;;;;;;;;20.80;56.90;;;;;;5037666;28;19979;-75
2021/05/16 09:12:02;;;;;;;;;;;20.80;56.80;;;;;;5040139;28;20307;-75
2021/05/16 09:14:40;;;;;;;;;;;20.80;56.80;;;;;;5036336;28;20050;-76
2021/05/16 09:17:21;;;;;;;;;;;20.80;56.90;;;;;;5052271;28;19921;-75
2021/05/16 09:19:51;;;;;;;;;;;20.80;57.00;;;;;;5043804;28;19928;-75
2021/05/16 09:22:29;;;;;;;;;;;20.80;56.90;;;;;;5052817;28;19917;-75
2021/05/16 09:25:25;;;;;;;;;;;20.80;57.00;;;;;;5036297;28;19913;-76
2021/05/16 09:27:55;;;;;;;;;;;20.80;57.00;;;;;;5037399;28;20380;-75
2021/05/16 09:30:20;;;;;;;;;;;20.80;57.00;;;;;;5029825;28;19913;-75
2021/05/16 09:33:04;;;;;;;;;;;20.80;56.90;;;;;;5052839;28;20008;-76
2021/05/16 09:35:34;;;;;;;;;;;20.80;56.80;;;;;;5046700;28;20012;-77
2021/05/16 09:38:04;;;;;;;;;;;20.80;56.80;;;;;;5049547;28;20278;-75
2021/05/16 09:40:31;;;;;;;;;;;20.80;56.70;;;;;;5036082;28;19917;-75
2021/05/16 09:43:16;;;;;;;;;;;20.80;56.60;;;;;;5053411;28;19912;-75
2021/05/16 09:45:43;;;;;;;;;;;20.90;56.50;;;;;;5049744;28;19935;-75
2021/05/16 09:48:28;;;;;;;;;;;21.00;56.40;;;;;;5033006;28;20358;-75
2021/05/16 09:51:03;;;;;;;;;;;21.00;56.20;;;;;;5046261;28;19913;-75
2021/05/16 09:53:29;;;;;;;;;;;21.00;56.20;;;;;;5046180;28;20514;-75
2021/05/16 09:56:11;;;;;;;;;;;21.00;56.20;;;;;;5051427;28;20043;-75
2021/05/16 09:58:37;;;;;;;;;;;21.00;56.20;;;;;;5029941;28;19967;-77
2021/05/16 10:01:03;;;;;;;;;;;21.00;56.30;;;;;;5050969;28;20007;-75
2021/05/16 10:03:29;;;;;;;;;;;21.00;56.30;;;;;;5035093;28;19913;-76
2021/05/16 10:05:54;;;;;;;;;;;21.00;56.20;;;;;;5034836;28;19917;-75
2021/05/16 10:08:20;;;;;;;;;;;21.00;56.20;;;;;;5035415;28;20397;-75
2021/05/16 10:10:45;;;;;;;;;;;21.00;56.20;;;;;;5053274;28;20011;-75
2021/05/16 10:13:11;;;;;;;;;;;21.10;56.20;;;;;;5033122;28;20405;-75
2021/05/16 10:15:37;;;;;;;;;;;21.00;56.20;;;;;;5031899;28;20027;-75
2021/05/16 10:18:07;;;;;;;;;;;21.00;56.20;;;;;;5053195;28;19921;-75
2021/05/16 10:20:33;;;;;;;;;;;21.00;56.30;;;;;;5031190;28;19913;-75
2021/05/16 10:23:01;;;;;;;;;;;21.00;56.20;;;;;;5053290;28;19958;-76
2021/05/16 10:25:42;;;;;;;;;;;21.00;56.20;;;;;;5053312;28;19916;-76
2021/05/16 10:28:11;;;;;;;;;;;21.00;56.10;;;;;;5035550;28;20007;-75
2021/05/16 10:30:37;;;;;;;;;;;21.00;56.20;;;;;;5030518;28;19936;-75
2021/05/16 10:33:02;;;;;;;;;;;21.00;56.20;;;;;;5051451;28;19912;-75
2021/05/16 10:35:46;;;;;;;;;;;21.00;56.20;;;;;;5053107;28;19947;-76
2021/05/16 10:38:31;;;;;;;;;;;21.00;56.30;;;;;;5049426;28;19913;-75
2021/05/16 10:41:15;;;;;;;;;;;21.00;56.30;;;;;;5032714;28;20278;-75
2021/05/16 10:43:40;;;;;;;;;;;21.00;56.40;;;;;;5053175;28;19920;-75
2021/05/16 10:46:25;;;;;;;;;;;21.00;56.40;;;;;;5053064;28;19913;-76
2021/05/16 10:48:50;;;;;;;;;;;21.00;56.30;;;;;;5052423;28;20004;-75
2021/05/16 10:51:25;;;;;;;;;;;21.00;56.30;;;;;;5056419;28;20016;-75
2021/05/16 10:53:51;;;;;;;;;;;21.00;56.30;;;;;;5037993;28;20337;-78
2021/05/16 10:56:21;;;;;;;;;;;20.90;56.40;;;;;;5034894;28;20015;-75
2021/05/16 10:58:48;;;;;;;;;;;20.90;56.40;;;;;;5035237;28;19920;-75
2021/05/16 11:01:18;;;;;;;;;;;20.90;56.40;;;;;;5034318;28;20010;-79
2021/05/16 11:03:46;;;;;;;;;;;20.90;56.40;;;;;;5048146;28;19913;-76
2021/05/16 11:06:13;;;;;;;;;;;20.90;56.30;;;;;;5050426;28;19913;-75
2021/05/16 11:08:38;;;;;;;;;;;21.00;56.30;;;;;;5033602;28;19979;-75
2021/05/16 11:11:24;;;;;;;;;;;21.00;56.40;;;;;;5051039;28;20370;-75
2021/05/16 11:13:50;;;;;;;;;;;21.00;56.30;;;;;;5039429;28;19924;-75
2021/05/16 11:16:15;;;;;;;;;;;21.00;56.30;;;;;;5052817;28;19913;-75
2021/05/16 11:18:41;;;;;;;;;;;21.00;56.20;;;;;;5047237;28;19913;-74
2021/05/16 11:21:07;;;;;;;;;;;21.10;56.00;;;;;;5051404;28;19972;-75
2021/05/16 11:23:33;;;;;;;;;;;21.20;55.90;;;;;;5046974;28;19920;-75
2021/05/16 11:25:59;;;;;;;;;;;21.10;55.90;;;;;;5042131;28;19909;-77
2021/05/16 11:28:25;;;;;;;;;;;21.20;55.80;;;;;;5052245;28;20251;-75
2021/05/16 11:30:51;;;;;;;;;;;21.20;55.80;;;;;;5048313;28;20004;-77
2021/05/16 11:33:28;;;;;;;;;;;21.10;55.80;;;;;;5051689;28;20020;-75
2021/05/16 11:35:54;;;;;;;;;;;21.10;56.00;;;;;;5034662;28;20420;-74
2021/05/16 11:38:39;;;;;;;;;;;21.00;56.10;;;;;;5050360;28;19917;-75
2021/05/16 11:41:05;;;;;;;;;;;21.00;56.10;;;;;;5044216;28;19975;-75
2021/05/16 11:43:31;;;;;;;;;;;21.00;56.10;;;;;;5041074;28;20358;-75
2021/05/16 11:45:58;;;;;;;;;;;21.00;56.10;;;;;;5050562;28;20334;-76
2021/05/16 11:48:24;;;;;;;;;;;21.00;56.10;;;;;;5037104;28;20014;-75
2021/05/16 11:50:50;;;;;;;;;;;21.10;56.10;;;;;;5052591;28;19924;-76
2021/05/16 11:53:21;;;;;;;;;;;21.10;56.00;;;;;;5054501;28;19917;-75
2021/05/16 11:55:47;;;;;;;;;;;21.10;56.00;;;;;;5047154;28;19920;-75
2021/05/16 11:58:12;;;;;;;;;;;21.10;55.90;;;;;;5035752;28;19914;-76
2021/05/16 12:00:38;;;;;;;;;;;21.10;55.90;;;;;;5031634;28;20393;-75
2021/05/16 12:03:07;;;;;;;;;;;21.20;55.90;;;;;;5042909;28;19919;-75
2021/05/16 12:05:33;;;;;;;;;;;21.20;55.90;;;;;;5055328;28;19913;-75
2021/05/16 12:07:58;;;;;;;;;;;21.20;55.80;;;;;;5040064;28;19920;-75
2021/05/16 12:10:24;;;;;;;;;;;21.20;55.80;;;;;;5037907;28;19909;-75
2021/05/16 12:12:49;;;;;;;;;;;21.20;55.80;;;;;;5051874;28;19924;-75
2021/05/16 12:15:23;;;;;;;;;;;21.20;55.70;;;;;;5039230;28;20012;-75
2021/05/16 12:17:48;;;;;;;;;;;21.20;55.60;;;;;;5050628;28;20281;-75
2021/05/16 12:20:21;;;;;;;;;;;21.20;55.70;;;;;;5039683;28;19921;-75
2021/05/16 12:22:47;;;;;;;;;;;21.20;55.80;;;;;;5049777;28;19913;-75
2021/05/16 12:25:13;;;;;;;;;;;21.10;55.90;;;;;;5061094;28;20019;-75
2021/05/16 12:27:38;;;;;;;;;;;21.10;56.00;;;;;;5059871;28;19917;-75
2021/05/16 12:30:04;;;;;;;;;;;21.10;56.00;;;;;;5056063;28;20417;-75
2021/05/16 12:32:30;;;;;;;;;;;21.10;56.00;;;;;;5054540;28;20050;-75
2021/05/16 12:34:56;;;;;;;;;;;21.10;55.90;;;;;;5055654;28;20366;-75
2021/05/16 12:37:23;;;;;;;;;;;21.20;55.90;;;;;;5035705;28;19912;-76
2021/05/16 12:39:49;;;;;;;;;;;21.20;55.80;;;;;;5058170;28;19944;-75
2021/05/16 12:42:34;;;;;;;;;;;21.20;55.80;;;;;;5055476;28;19913;-76
2021/05/16 12:45:19;;;;;;;;;;;21.20;55.70;;;;;;5047665;28;19917;-75
2021/05/16 12:47:54;;;;;;;;;;;21.20;55.70;;;;;;5054089;28;19913;-75
2021/05/16 12:50:26;;;;;;;;;;;21.20;55.70;;;;;;5038430;28;19936;-77
2021/05/16 12:52:52;;;;;;;;;;;21.20;55.60;;;;;;5037233;28;19928;-75
2021/05/16 12:55:27;;;;;;;;;;;21.20;55.60;;;;;;5044232;28;20034;-75
2021/05/16 12:58:01;;;;;;;;;;;21.20;55.60;;;;;;5055047;28;19912;-76
2021/05/16 13:00:33;;;;;;;;;;;21.20;55.70;;;;;;5051925;28;19917;-75
2021/05/16 13:03:05;;;;;;;;;;;21.20;55.70;;;;;;5044864;28;19913;-76
2021/05/16 13:05:31;;;;;;;;;;;21.20;55.70;;;;;;5047484;28;20438;-76
2021/05/16 13:07:56;;;;;;;;;;;21.20;55.60;;;;;;5032284;28;19920;-77
2021/05/16 13:10:38;;;;;;;;;;;21.20;55.60;;;;;;5044893;28;20269;-75
2021/05/16 13:13:07;;;;;;;;;;;21.20;55.70;;;;;;5054592;28;20325;-76
2021/05/16 13:15:34;;;;;;;;;;;21.10;55.80;;;;;;5039337;28;19952;-76
2021/05/16 13:18:19;;;;;;;;;;;21.10;55.90;;;;;;5035436;28;19999;-78
2021/05/16 13:20:45;;;;;;;;;;;21.20;55.90;;;;;;5050952;28;19913;-77
2021/05/16 13:23:20;;;;;;;;;;;21.20;55.80;;;;;;5054003;28;20385;-75
2021/05/16 13:25:46;;;;;;;;;;;21.20;55.70;;;;;;5054086;28;19920;-75
2021/05/16 13:28:15;;;;;;;;;;;21.20;55.70;;;;;;5030471;28;19933;-75
2021/05/16 13:30:41;;;;;;;;;;;21.20;55.80;;;;;;5028964;28;20278;-75
2021/05/16 13:33:10;;;;;;;;;;;21.10;55.90;;;;;;5034468;28;20420;-76
2021/05/16 13:35:36;;;;;;;;;;;21.10;56.00;;;;;;5048530;28;19920;-75
2021/05/16 13:38:01;;;;;;;;;;;21.10;56.00;;;;;;5031980;28;19912;-75
2021/05/16 13:40:27;;;;;;;;;;;21.10;56.00;;;;;;5033062;28;19969;-75
2021/05/16 13:42:54;;;;;;;;;;;21.10;56.00;;;;;;5036525;28;19963;-74
2021/05/16 13:45:20;;;;;;;;;;;21.10;55.90;;;;;;5054071;28;19960;-76
2021/05/16 13:47:46;;;;;;;;;;;21.10;55.90;;;;;;5036662;28;20243;-75
2021/05/16 13:50:12;;;;;;;;;;;21.10;55.90;;;;;;5053176;28;19920;-75
2021/05/16 13:52:37;;;;;;;;;;;21.20;55.80;;;;;;5036522;28;19913;-75
2021/05/16 13:55:03;;;;;;;;;;;21.10;55.80;;;;;;5048064;28;19920;-76
2021/05/16 13:57:28;;;;;;;;;;;21.20;55.90;;;;;;5032583;28;19920;-75
2021/05/16 13:59:54;;;;;;;;;;;21.20;55.90;;;;;;5049417;28;19921;-75
2021/05/16 14:02:19;;;;;;;;;;;21.10;55.90;;;;;;5047776;28;19917;-75
2021/05/16 14:04:45;;;;;;;;;;;21.20;55.90;;;;;;5034910;28;20012;-76
2021/05/16 14:07:10;;;;;;;;;;;21.10;55.90;;;;;;5051374;28;19914;-76
2021/05/16 14:09:36;;;;;;;;;;;21.10;56.00;;;;;;5038470;28;19921;-75
2021/05/16 14:12:02;;;;;;;;;;;21.00;56.10;;;;;;5035873;28;19936;-75
2021/05/16 14:14:28;;;;;;;;;;;21.00;56.20;;;;;;5052917;28;20345;-75
2021/05/16 14:16:53;;;;;;;;;;;21.00;56.20;;;;;;5052696;28;19987;-75
2021/05/16 14:19:19;;;;;;;;;;;21.00;56.20;;;;;;5022623;28;20011;-75